IRA952T HLTQ-HLLM
Flight info
| Callsign | IRA952T |
|---|---|
| Flight time | 1h 29m |
| Altitude | 34000 |
| Route | TBQ DCT MKILY A411 BNA A420 MIS MIS2B |
| Aircraft | B38M/M-SDE1FGHILORVWXY/HB1 |
Departure
| Time | 2026-04-22 17:07 |
|---|---|
| Airport | Tobruk International Airport (HLTQ) |
Arrival
| Time | 2026-04-22 18:36 |
|---|---|
| Airport | Mitiga International Airport (HLLM) |
| Time | Latitude | Longitude | Altitude | Speed | Heading |
|---|---|---|---|---|---|
| 2026-04-22 16:45 | 31.86622 | 23.91503 | 531 ft | 0 kts | 70° |
| 2026-04-22 17:00 | 31.86612 | 23.91480 | 531 ft | 4 kts | 43° |
| 2026-04-22 17:00 | 31.86573 | 23.91488 | 531 ft | 4 kts | 298° |
| 2026-04-22 17:00 | 31.86569 | 23.91500 | 531 ft | 0 kts | 282° |
| 2026-04-22 17:02 | 31.86569 | 23.91499 | 531 ft | 1 kts | 282° |
| 2026-04-22 17:03 | 31.86571 | 23.91485 | 531 ft | 3 kts | 282° |
| 2026-04-22 17:03 | 31.86577 | 23.91454 | 531 ft | 5 kts | 282° |
| 2026-04-22 17:03 | 31.86586 | 23.91405 | 531 ft | 7 kts | 283° |
| 2026-04-22 17:03 | 31.86613 | 23.91350 | 531 ft | 8 kts | 311° |
| 2026-04-22 17:04 | 31.86671 | 23.91273 | 531 ft | 19 kts | 311° |
| 2026-04-22 17:04 | 31.86784 | 23.91121 | 531 ft | 28 kts | 311° |
| 2026-04-22 17:04 | 31.86893 | 23.90923 | 531 ft | 30 kts | 315° |
| 2026-04-22 17:04 | 31.87060 | 23.90776 | 531 ft | 30 kts | 324° |
| 2026-04-22 17:05 | 31.87234 | 23.90629 | 531 ft | 31 kts | 324° |
| 2026-04-22 17:05 | 31.87297 | 23.90576 | 531 ft | 1 kts | 324° |
| 2026-04-22 17:05 | 31.87313 | 23.90563 | 530 ft | 4 kts | 324° |
| 2026-04-22 17:05 | 31.87344 | 23.90536 | 530 ft | 7 kts | 324° |
| 2026-04-22 17:06 | 31.87398 | 23.90475 | 529 ft | 22 kts | 289° |
| 2026-04-22 17:06 | 31.87323 | 23.90392 | 529 ft | 32 kts | 195° |
| 2026-04-22 17:06 | 31.86879 | 23.90214 | 531 ft | 103 kts | 199° |
| 2026-04-22 17:06 | 31.85972 | 23.89827 | 533 ft | 172 kts | 200° |
| 2026-04-22 17:07 | 31.84790 | 23.89325 | 1163 ft | 190 kts | 199° |
| 2026-04-22 17:07 | 31.83477 | 23.88732 | 1902 ft | 209 kts | 200° |
| 2026-04-22 17:07 | 31.82081 | 23.88659 | 3088 ft | 206 kts | 164° |
| 2026-04-22 17:07 | 31.80762 | 23.89518 | 3816 ft | 225 kts | 134° |
| 2026-04-22 17:08 | 31.80015 | 23.91087 | 4819 ft | 229 kts | 103° |
| 2026-04-22 17:08 | 31.80038 | 23.92986 | 5442 ft | 247 kts | 72° |
| 2026-04-22 17:08 | 31.80931 | 23.94746 | 6198 ft | 260 kts | 44° |
| 2026-04-22 17:08 | 31.82498 | 23.95833 | 7042 ft | 268 kts | 15° |
| 2026-04-22 17:09 | 31.84345 | 23.96149 | 8024 ft | 271 kts | 5° |
| 2026-04-22 17:09 | 31.86244 | 23.96252 | 8918 ft | 276 kts | 353° |
| 2026-04-22 17:09 | 31.87476 | 23.95906 | 9547 ft | 276 kts | 338° |
| 2026-04-22 17:09 | 31.89569 | 23.94143 | 10695 ft | 282 kts | 308° |
| 2026-04-22 17:10 | 31.90455 | 23.92086 | 11525 ft | 286 kts | 284° |
| 2026-04-22 17:10 | 31.90675 | 23.89752 | 12298 ft | 292 kts | 274° |
| 2026-04-22 17:10 | 31.90848 | 23.87295 | 12723 ft | 311 kts | 275° |
| 2026-04-22 17:10 | 31.91058 | 23.84685 | 13066 ft | 331 kts | 275° |
| 2026-04-22 17:11 | 31.91286 | 23.81910 | 13355 ft | 350 kts | 275° |
| 2026-04-22 17:11 | 31.91529 | 23.78977 | 13626 ft | 368 kts | 275° |
| 2026-04-22 17:11 | 31.91780 | 23.75922 | 14021 ft | 380 kts | 275° |
| 2026-04-22 17:11 | 31.92021 | 23.72819 | 14771 ft | 380 kts | 275° |
| 2026-04-22 17:12 | 31.92241 | 23.69739 | 15701 ft | 376 kts | 275° |
| 2026-04-22 17:12 | 31.92459 | 23.66665 | 16343 ft | 380 kts | 275° |
| 2026-04-22 17:12 | 31.92685 | 23.63548 | 16952 ft | 384 kts | 275° |
| 2026-04-22 17:12 | 31.92910 | 23.60407 | 17556 ft | 387 kts | 275° |
| 2026-04-22 17:13 | 31.93139 | 23.57237 | 18142 ft | 390 kts | 275° |
| 2026-04-22 17:13 | 31.93368 | 23.54039 | 18710 ft | 394 kts | 275° |
| 2026-04-22 17:13 | 31.93598 | 23.50817 | 19267 ft | 397 kts | 275° |
| 2026-04-22 17:13 | 31.93829 | 23.47562 | 19807 ft | 400 kts | 275° |
| 2026-04-22 17:14 | 31.94062 | 23.44291 | 20333 ft | 403 kts | 275° |
| 2026-04-22 17:14 | 31.94295 | 23.40990 | 20845 ft | 406 kts | 275° |
| 2026-04-22 17:14 | 31.94528 | 23.37661 | 21347 ft | 409 kts | 275° |
| 2026-04-22 17:14 | 31.94763 | 23.34309 | 21830 ft | 412 kts | 275° |
| 2026-04-22 17:15 | 31.94840 | 23.33215 | 21988 ft | 413 kts | 275° |
| 2026-04-22 17:15 | 31.95232 | 23.27574 | 22766 ft | 418 kts | 275° |
| 2026-04-22 17:15 | 31.95468 | 23.24152 | 23214 ft | 421 kts | 275° |
| 2026-04-22 17:15 | 31.95706 | 23.20702 | 23652 ft | 424 kts | 275° |
| 2026-04-22 17:16 | 31.95944 | 23.17234 | 24081 ft | 427 kts | 275° |
| 2026-04-22 17:16 | 31.96183 | 23.13737 | 24492 ft | 429 kts | 275° |
| 2026-04-22 17:16 | 31.96422 | 23.10223 | 24895 ft | 432 kts | 274° |
| 2026-04-22 17:16 | 31.96660 | 23.06693 | 25288 ft | 434 kts | 274° |
| 2026-04-22 17:17 | 31.96900 | 23.03133 | 25670 ft | 437 kts | 274° |
| 2026-04-22 17:17 | 31.97141 | 22.99554 | 26043 ft | 439 kts | 274° |
| 2026-04-22 17:17 | 31.97380 | 22.95963 | 26407 ft | 442 kts | 274° |
| 2026-04-22 17:17 | 31.97619 | 22.92356 | 26840 ft | 442 kts | 274° |
| 2026-04-22 17:18 | 31.97853 | 22.88750 | 27315 ft | 441 kts | 274° |
| 2026-04-22 17:18 | 31.98085 | 22.85156 | 27783 ft | 440 kts | 274° |
| 2026-04-22 17:18 | 31.98315 | 22.81575 | 28232 ft | 439 kts | 274° |
| 2026-04-22 17:18 | 31.98545 | 22.77990 | 28675 ft | 438 kts | 274° |
| 2026-04-22 17:19 | 31.99001 | 22.70849 | 29535 ft | 436 kts | 274° |
| 2026-04-22 17:19 | 31.99452 | 22.63740 | 30336 ft | 435 kts | 274° |
| 2026-04-22 17:20 | 31.99898 | 22.56646 | 31081 ft | 434 kts | 274° |
| 2026-04-22 17:20 | 32.00340 | 22.49572 | 31809 ft | 433 kts | 274° |
| 2026-04-22 17:21 | 32.00560 | 22.46038 | 32164 ft | 432 kts | 274° |
| 2026-04-22 17:21 | 32.00995 | 22.38998 | 32854 ft | 430 kts | 274° |
| 2026-04-22 17:22 | 32.01425 | 22.31974 | 33512 ft | 429 kts | 274° |
| 2026-04-22 17:22 | 32.01639 | 22.28471 | 33829 ft | 428 kts | 274° |
| 2026-04-22 17:22 | 32.01993 | 22.22645 | 34014 ft | 428 kts | 274° |
| 2026-04-22 17:23 | 32.02203 | 22.19164 | 34008 ft | 426 kts | 274° |
| 2026-04-22 17:23 | 32.02829 | 22.08731 | 34001 ft | 426 kts | 274° |
| 2026-04-22 17:24 | 32.03243 | 22.01771 | 34000 ft | 426 kts | 274° |
| 2026-04-22 17:24 | 32.03653 | 21.94810 | 34000 ft | 426 kts | 274° |
| 2026-04-22 17:25 | 32.04059 | 21.87851 | 34000 ft | 426 kts | 274° |
| 2026-04-22 17:25 | 32.04461 | 21.80881 | 34000 ft | 426 kts | 274° |
| 2026-04-22 17:26 | 32.04860 | 21.73914 | 34000 ft | 426 kts | 274° |
| 2026-04-22 17:26 | 32.05254 | 21.66952 | 34000 ft | 426 kts | 274° |
| 2026-04-22 17:27 | 32.05645 | 21.59985 | 34000 ft | 426 kts | 274° |
| 2026-04-22 17:27 | 32.06033 | 21.53014 | 34000 ft | 426 kts | 274° |
| 2026-04-22 17:28 | 32.06416 | 21.46041 | 34000 ft | 426 kts | 274° |
| 2026-04-22 17:28 | 32.06794 | 21.39110 | 34000 ft | 426 kts | 274° |
| 2026-04-22 17:29 | 32.07169 | 21.32136 | 34000 ft | 426 kts | 274° |
| 2026-04-22 17:29 | 32.07542 | 21.25152 | 34000 ft | 427 kts | 274° |
| 2026-04-22 17:30 | 32.07910 | 21.18178 | 33999 ft | 427 kts | 274° |
| 2026-04-22 17:30 | 32.08275 | 21.11192 | 34000 ft | 427 kts | 273° |
| 2026-04-22 17:31 | 32.08636 | 21.04210 | 34000 ft | 427 kts | 273° |
| 2026-04-22 17:31 | 32.08994 | 20.97221 | 34000 ft | 427 kts | 273° |
| 2026-04-22 17:32 | 32.09348 | 20.90219 | 34000 ft | 428 kts | 273° |
| 2026-04-22 17:32 | 32.09698 | 20.83221 | 34000 ft | 428 kts | 273° |
| 2026-04-22 17:33 | 32.10045 | 20.76218 | 34000 ft | 428 kts | 273° |
| 2026-04-22 17:33 | 32.10388 | 20.69202 | 33998 ft | 428 kts | 273° |
| 2026-04-22 17:34 | 32.10726 | 20.62210 | 34000 ft | 427 kts | 273° |
| 2026-04-22 17:34 | 32.11060 | 20.55218 | 34000 ft | 426 kts | 273° |
| 2026-04-22 17:35 | 32.11390 | 20.48239 | 34000 ft | 426 kts | 273° |
| 2026-04-22 17:35 | 32.11714 | 20.41301 | 34000 ft | 427 kts | 273° |
| 2026-04-22 17:36 | 32.12037 | 20.34313 | 34000 ft | 427 kts | 273° |
| 2026-04-22 17:36 | 32.12355 | 20.27333 | 34000 ft | 426 kts | 273° |
| 2026-04-22 17:37 | 32.12511 | 20.20353 | 34002 ft | 425 kts | 271° |
| 2026-04-22 17:37 | 32.12650 | 20.13384 | 34000 ft | 425 kts | 271° |
| 2026-04-22 17:38 | 32.12790 | 20.06416 | 34000 ft | 425 kts | 271° |
| 2026-04-22 17:38 | 32.12926 | 19.99452 | 34000 ft | 425 kts | 271° |
| 2026-04-22 17:39 | 32.13059 | 19.92480 | 34000 ft | 425 kts | 271° |
| 2026-04-22 17:40 | 32.13250 | 19.82029 | 34000 ft | 425 kts | 271° |
| 2026-04-22 17:40 | 32.13373 | 19.75062 | 34000 ft | 425 kts | 271° |
| 2026-04-22 17:41 | 32.13492 | 19.68096 | 34000 ft | 425 kts | 271° |
| 2026-04-22 17:41 | 32.13607 | 19.61128 | 34000 ft | 425 kts | 271° |
| 2026-04-22 17:42 | 32.13719 | 19.54159 | 34000 ft | 425 kts | 271° |
| 2026-04-22 17:42 | 32.13826 | 19.47191 | 34000 ft | 425 kts | 271° |
| 2026-04-22 17:43 | 32.13930 | 19.40220 | 34000 ft | 425 kts | 271° |
| 2026-04-22 17:43 | 32.14030 | 19.33253 | 34000 ft | 425 kts | 271° |
| 2026-04-22 17:44 | 32.14126 | 19.26286 | 34000 ft | 425 kts | 271° |
| 2026-04-22 17:44 | 32.14218 | 19.19364 | 34000 ft | 425 kts | 271° |
| 2026-04-22 17:45 | 32.14306 | 19.12394 | 34000 ft | 425 kts | 271° |
| 2026-04-22 17:45 | 32.14392 | 19.05376 | 34000 ft | 425 kts | 271° |
| 2026-04-22 17:46 | 32.14473 | 18.98409 | 34000 ft | 425 kts | 271° |
| 2026-04-22 17:46 | 32.14549 | 18.91487 | 34000 ft | 425 kts | 271° |
| 2026-04-22 17:47 | 32.14623 | 18.84515 | 34000 ft | 425 kts | 270° |
| 2026-04-22 17:47 | 32.14692 | 18.77544 | 34000 ft | 425 kts | 270° |
| 2026-04-22 17:48 | 32.14747 | 18.71756 | 34000 ft | 425 kts | 270° |
| 2026-04-22 17:48 | 32.14820 | 18.63606 | 34000 ft | 425 kts | 270° |
| 2026-04-22 17:49 | 32.14878 | 18.56637 | 34000 ft | 425 kts | 270° |
| 2026-04-22 17:49 | 32.14932 | 18.49668 | 34000 ft | 425 kts | 270° |
| 2026-04-22 17:50 | 32.14985 | 18.42699 | 34000 ft | 425 kts | 270° |
| 2026-04-22 17:50 | 32.15294 | 18.35745 | 34009 ft | 425 kts | 274° |
| 2026-04-22 17:51 | 32.15640 | 18.28785 | 33994 ft | 425 kts | 278° |
| 2026-04-22 17:51 | 32.16335 | 18.25411 | 33990 ft | 423 kts | 291° |
| 2026-04-22 17:51 | 32.17601 | 18.22284 | 34008 ft | 424 kts | 297° |
| 2026-04-22 17:52 | 32.20214 | 18.16026 | 34000 ft | 425 kts | 296° |
| 2026-04-22 17:52 | 32.22776 | 18.09742 | 34000 ft | 425 kts | 295° |
| 2026-04-22 17:53 | 32.25332 | 18.03448 | 34001 ft | 425 kts | 295° |
| 2026-04-22 17:53 | 32.27889 | 17.97133 | 34000 ft | 430 kts | 295° |
| 2026-04-22 17:54 | 32.30498 | 17.90676 | 33996 ft | 438 kts | 295° |
| 2026-04-22 17:54 | 32.33190 | 17.84008 | 34000 ft | 437 kts | 295° |
| 2026-04-22 17:55 | 32.35364 | 17.78614 | 34001 ft | 437 kts | 295° |
| 2026-04-22 17:55 | 32.38415 | 17.71028 | 34001 ft | 437 kts | 295° |
| 2026-04-22 17:56 | 32.41025 | 17.64528 | 34000 ft | 437 kts | 295° |
| 2026-04-22 17:56 | 32.43629 | 17.58029 | 34000 ft | 437 kts | 295° |
| 2026-04-22 17:57 | 32.46230 | 17.51524 | 33999 ft | 437 kts | 295° |
| 2026-04-22 17:57 | 32.48830 | 17.45013 | 34001 ft | 437 kts | 295° |
| 2026-04-22 17:58 | 32.51407 | 17.38544 | 34000 ft | 437 kts | 295° |
| 2026-04-22 17:58 | 32.54016 | 17.31985 | 33998 ft | 437 kts | 295° |
| 2026-04-22 17:59 | 32.56587 | 17.25508 | 34001 ft | 437 kts | 295° |
| 2026-04-22 17:59 | 32.59172 | 17.18984 | 34000 ft | 437 kts | 295° |
| 2026-04-22 18:00 | 32.61335 | 17.13516 | 34001 ft | 437 kts | 295° |
| 2026-04-22 18:00 | 32.64330 | 17.05931 | 34001 ft | 437 kts | 295° |
| 2026-04-22 18:01 | 32.66438 | 16.99204 | 33978 ft | 435 kts | 276° |
| 2026-04-22 18:01 | 32.66664 | 16.92020 | 33984 ft | 437 kts | 271° |
| 2026-04-22 18:02 | 32.66761 | 16.84809 | 34000 ft | 437 kts | 270° |
| 2026-04-22 18:02 | 32.66810 | 16.77594 | 34000 ft | 437 kts | 270° |
| 2026-04-22 18:03 | 32.66848 | 16.70379 | 34000 ft | 437 kts | 270° |
| 2026-04-22 18:03 | 32.66876 | 16.64384 | 34000 ft | 437 kts | 270° |
| 2026-04-22 18:04 | 32.66906 | 16.57171 | 34000 ft | 437 kts | 270° |
| 2026-04-22 18:04 | 32.66932 | 16.49958 | 34000 ft | 437 kts | 270° |
| 2026-04-22 18:05 | 32.66954 | 16.42738 | 34000 ft | 437 kts | 270° |
| 2026-04-22 18:05 | 32.66972 | 16.35530 | 34000 ft | 437 kts | 270° |
| 2026-04-22 18:06 | 32.66985 | 16.28310 | 34000 ft | 437 kts | 270° |
| 2026-04-22 18:06 | 32.66995 | 16.21098 | 34000 ft | 437 kts | 270° |
| 2026-04-22 18:07 | 32.67000 | 16.13886 | 34000 ft | 437 kts | 270° |
| 2026-04-22 18:07 | 32.67002 | 16.06669 | 34000 ft | 437 kts | 270° |
| 2026-04-22 18:08 | 32.67040 | 15.99456 | 34000 ft | 437 kts | 271° |
| 2026-04-22 18:08 | 32.67108 | 15.92245 | 34000 ft | 437 kts | 270° |
| 2026-04-22 18:09 | 32.67170 | 15.85029 | 34000 ft | 437 kts | 270° |
| 2026-04-22 18:09 | 32.67226 | 15.77865 | 34000 ft | 437 kts | 270° |
| 2026-04-22 18:10 | 32.67278 | 15.70701 | 33991 ft | 424 kts | 270° |
| 2026-04-22 18:10 | 32.67302 | 15.67242 | 33720 ft | 415 kts | 270° |
| 2026-04-22 18:10 | 32.67325 | 15.63832 | 33330 ft | 410 kts | 270° |
| 2026-04-22 18:10 | 32.67346 | 15.60479 | 32817 ft | 402 kts | 270° |
| 2026-04-22 18:11 | 32.67366 | 15.57195 | 32332 ft | 397 kts | 270° |
| 2026-04-22 18:11 | 32.67385 | 15.53921 | 31850 ft | 395 kts | 270° |
| 2026-04-22 18:11 | 32.67403 | 15.50665 | 31356 ft | 394 kts | 270° |
| 2026-04-22 18:11 | 32.67421 | 15.47419 | 30863 ft | 394 kts | 270° |
| 2026-04-22 18:12 | 32.67437 | 15.44151 | 30367 ft | 396 kts | 270° |
| 2026-04-22 18:12 | 32.67453 | 15.40884 | 29872 ft | 397 kts | 270° |
| 2026-04-22 18:12 | 32.67467 | 15.37603 | 29374 ft | 398 kts | 270° |
| 2026-04-22 18:12 | 32.67482 | 15.34315 | 28873 ft | 399 kts | 270° |
| 2026-04-22 18:13 | 32.67495 | 15.31021 | 28375 ft | 400 kts | 270° |
| 2026-04-22 18:13 | 32.67507 | 15.27717 | 27872 ft | 401 kts | 270° |
| 2026-04-22 18:13 | 32.67519 | 15.24404 | 27370 ft | 402 kts | 270° |
| 2026-04-22 18:13 | 32.67529 | 15.21087 | 26871 ft | 403 kts | 270° |
| 2026-04-22 18:14 | 32.67539 | 15.17761 | 26369 ft | 404 kts | 270° |
| 2026-04-22 18:14 | 32.67549 | 15.14423 | 25868 ft | 404 kts | 270° |
| 2026-04-22 18:14 | 32.67558 | 15.11088 | 25362 ft | 404 kts | 270° |
| 2026-04-22 18:14 | 32.67565 | 15.07757 | 24871 ft | 402 kts | 270° |
| 2026-04-22 18:15 | 32.67571 | 15.04456 | 24372 ft | 399 kts | 270° |
| 2026-04-22 18:15 | 32.67577 | 15.01170 | 23870 ft | 396 kts | 270° |
| 2026-04-22 18:15 | 32.67582 | 14.97913 | 23371 ft | 393 kts | 270° |
| 2026-04-22 18:15 | 32.67586 | 14.94684 | 22873 ft | 390 kts | 270° |
| 2026-04-22 18:16 | 32.67589 | 14.91518 | 22380 ft | 387 kts | 270° |
| 2026-04-22 18:16 | 32.67592 | 14.88332 | 21881 ft | 384 kts | 270° |
| 2026-04-22 18:16 | 32.67594 | 14.85177 | 21383 ft | 382 kts | 270° |
| 2026-04-22 18:16 | 32.67595 | 14.82042 | 20884 ft | 379 kts | 270° |
| 2026-04-22 18:17 | 32.67595 | 14.78923 | 20385 ft | 377 kts | 270° |
| 2026-04-22 18:17 | 32.67594 | 14.75819 | 19888 ft | 376 kts | 270° |
| 2026-04-22 18:17 | 32.67593 | 14.72717 | 19387 ft | 375 kts | 270° |
| 2026-04-22 18:17 | 32.67591 | 14.69620 | 18886 ft | 375 kts | 270° |
| 2026-04-22 18:18 | 32.67588 | 14.66531 | 18384 ft | 374 kts | 270° |
| 2026-04-22 18:18 | 32.67584 | 14.63449 | 17884 ft | 373 kts | 270° |
| 2026-04-22 18:18 | 32.67580 | 14.60371 | 17382 ft | 373 kts | 270° |
| 2026-04-22 18:18 | 32.67575 | 14.57298 | 16884 ft | 372 kts | 270° |
| 2026-04-22 18:19 | 32.67569 | 14.54249 | 16518 ft | 367 kts | 270° |
| 2026-04-22 18:19 | 32.67562 | 14.51240 | 16149 ft | 363 kts | 270° |
| 2026-04-22 18:19 | 32.67555 | 14.48257 | 15777 ft | 359 kts | 270° |
| 2026-04-22 18:19 | 32.67547 | 14.45313 | 15402 ft | 356 kts | 270° |
| 2026-04-22 18:20 | 32.67539 | 14.42386 | 15029 ft | 352 kts | 270° |
| 2026-04-22 18:20 | 32.67530 | 14.39491 | 14646 ft | 350 kts | 270° |
| 2026-04-22 18:20 | 32.67521 | 14.36619 | 14265 ft | 346 kts | 270° |
| 2026-04-22 18:20 | 32.67511 | 14.33771 | 13889 ft | 344 kts | 270° |
| 2026-04-22 18:21 | 32.67500 | 14.30950 | 13514 ft | 341 kts | 270° |
| 2026-04-22 18:21 | 32.67489 | 14.28144 | 13139 ft | 338 kts | 270° |
| 2026-04-22 18:21 | 32.67477 | 14.25368 | 12764 ft | 336 kts | 270° |
| 2026-04-22 18:21 | 32.67465 | 14.22605 | 12389 ft | 333 kts | 270° |
| 2026-04-22 18:22 | 32.67452 | 14.19867 | 12014 ft | 331 kts | 270° |
| 2026-04-22 18:22 | 32.67439 | 14.17140 | 11639 ft | 329 kts | 270° |
| 2026-04-22 18:22 | 32.67425 | 14.14433 | 11265 ft | 327 kts | 269° |
| 2026-04-22 18:22 | 32.67411 | 14.11739 | 10891 ft | 326 kts | 269° |
| 2026-04-22 18:23 | 32.67396 | 14.09071 | 10518 ft | 324 kts | 269° |
| 2026-04-22 18:23 | 32.67381 | 14.06389 | 10142 ft | 322 kts | 269° |
| 2026-04-22 18:23 | 32.67366 | 14.03735 | 9767 ft | 321 kts | 269° |
| 2026-04-22 18:24 | 32.67442 | 13.98515 | 9009 ft | 317 kts | 282° |
| 2026-04-22 18:24 | 32.68176 | 13.96065 | 8640 ft | 315 kts | 291° |
| 2026-04-22 18:24 | 32.69759 | 13.91254 | 7894 ft | 312 kts | 291° |
| 2026-04-22 18:25 | 32.70543 | 13.88859 | 7515 ft | 310 kts | 291° |
| 2026-04-22 18:25 | 32.71309 | 13.86512 | 7177 ft | 298 kts | 291° |
| 2026-04-22 18:25 | 32.72039 | 13.84275 | 6935 ft | 283 kts | 291° |
| 2026-04-22 18:26 | 32.73394 | 13.80121 | 6421 ft | 259 kts | 291° |
| 2026-04-22 18:26 | 32.74031 | 13.78166 | 6170 ft | 249 kts | 291° |
| 2026-04-22 18:26 | 32.74643 | 13.76286 | 5906 ft | 239 kts | 291° |
| 2026-04-22 18:26 | 32.75232 | 13.74476 | 5643 ft | 230 kts | 291° |
| 2026-04-22 18:27 | 32.75798 | 13.72733 | 5376 ft | 222 kts | 291° |
| 2026-04-22 18:27 | 32.76343 | 13.71058 | 5137 ft | 214 kts | 291° |
| 2026-04-22 18:27 | 32.76872 | 13.69430 | 4992 ft | 211 kts | 291° |
| 2026-04-22 18:27 | 32.77398 | 13.67808 | 4798 ft | 210 kts | 291° |
| 2026-04-22 18:28 | 32.77921 | 13.66196 | 4594 ft | 209 kts | 291° |
| 2026-04-22 18:28 | 32.78441 | 13.64592 | 4394 ft | 205 kts | 291° |
| 2026-04-22 18:28 | 32.78937 | 13.63061 | 4197 ft | 192 kts | 291° |
| 2026-04-22 18:28 | 32.79408 | 13.61610 | 4021 ft | 184 kts | 291° |
| 2026-04-22 18:29 | 32.79860 | 13.60214 | 3836 ft | 178 kts | 291° |
| 2026-04-22 18:29 | 32.80301 | 13.58852 | 3622 ft | 176 kts | 291° |
| 2026-04-22 18:29 | 32.80735 | 13.57513 | 3436 ft | 170 kts | 291° |
| 2026-04-22 18:29 | 32.81148 | 13.56235 | 3273 ft | 160 kts | 291° |
| 2026-04-22 18:30 | 32.81563 | 13.55030 | 3058 ft | 155 kts | 298° |
| 2026-04-22 18:30 | 32.82711 | 13.52940 | 2692 ft | 146 kts | 302° |
| 2026-04-22 18:30 | 32.83243 | 13.51937 | 2478 ft | 142 kts | 302° |
| 2026-04-22 18:31 | 32.83754 | 13.50933 | 2270 ft | 141 kts | 298° |
| 2026-04-22 18:31 | 32.84176 | 13.49881 | 2137 ft | 141 kts | 292° |
| 2026-04-22 18:31 | 32.84522 | 13.48790 | 2082 ft | 141 kts | 289° |
| 2026-04-22 18:31 | 32.84818 | 13.47678 | 2071 ft | 141 kts | 287° |
| 2026-04-22 18:32 | 32.85090 | 13.46557 | 2077 ft | 141 kts | 285° |
| 2026-04-22 18:32 | 32.85353 | 13.45430 | 2080 ft | 141 kts | 285° |
| 2026-04-22 18:32 | 32.85614 | 13.44304 | 2079 ft | 141 kts | 285° |
| 2026-04-22 18:32 | 32.85873 | 13.43175 | 2081 ft | 141 kts | 285° |
| 2026-04-22 18:33 | 32.86133 | 13.42046 | 1975 ft | 141 kts | 285° |
| 2026-04-22 18:33 | 32.86391 | 13.40919 | 1813 ft | 141 kts | 285° |
| 2026-04-22 18:33 | 32.86648 | 13.39799 | 1640 ft | 140 kts | 285° |
| 2026-04-22 18:33 | 32.86904 | 13.38685 | 1461 ft | 140 kts | 285° |
| 2026-04-22 18:34 | 32.87150 | 13.37610 | 1287 ft | 140 kts | 285° |
| 2026-04-22 18:34 | 32.87405 | 13.36497 | 1095 ft | 139 kts | 285° |
| 2026-04-22 18:34 | 32.87663 | 13.35371 | 905 ft | 139 kts | 285° |
| 2026-04-22 18:34 | 32.87917 | 13.34265 | 719 ft | 138 kts | 285° |
| 2026-04-22 18:35 | 32.88171 | 13.33162 | 525 ft | 138 kts | 285° |
| 2026-04-22 18:35 | 32.88425 | 13.32078 | 307 ft | 138 kts | 285° |
| 2026-04-22 18:35 | 32.88679 | 13.30973 | 122 ft | 137 kts | 285° |
| 2026-04-22 18:35 | 32.88917 | 13.29916 | 24 ft | 123 kts | 284° |
| 2026-04-22 18:36 | 32.89066 | 13.29237 | 20 ft | 50 kts | 285° |
| 2026-04-22 18:36 | 32.89155 | 13.28935 | 25 ft | 25 kts | 318° |
| 2026-04-22 18:36 | 32.89271 | 13.28916 | 24 ft | 15 kts | 345° |
| 2026-04-22 18:36 | 32.89316 | 13.28817 | 24 ft | 15 kts | 285° |
| 2026-04-22 18:37 | 32.89344 | 13.28692 | 25 ft | 16 kts | 285° |
| 2026-04-22 18:37 | 32.89377 | 13.28555 | 24 ft | 18 kts | 286° |
| 2026-04-22 18:37 | 32.89402 | 13.28456 | 26 ft | 19 kts | 286° |
| 2026-04-22 18:37 | 32.89491 | 13.28301 | 26 ft | 17 kts | 339° |
| 2026-04-22 18:38 | 32.89601 | 13.28246 | 23 ft | 18 kts | 335° |
| 2026-04-22 18:38 | 32.89719 | 13.28183 | 25 ft | 19 kts | 335° |
| 2026-04-22 18:38 | 32.89845 | 13.28115 | 24 ft | 20 kts | 335° |
| 2026-04-22 18:39 | 32.90081 | 13.27935 | 26 ft | 19 kts | 277° |
| 2026-04-22 18:39 | 32.90073 | 13.27777 | 24 ft | 18 kts | 277° |
| 2026-04-22 18:39 | 32.90114 | 13.27639 | 25 ft | 15 kts | 297° |
| 2026-04-22 18:39 | 32.90126 | 13.27614 | 28 ft | 0 kts | 300° |